Wangaratta, Victoria

9:43 PM AEDT on April 02, 2015 (GMT +1100)
Benalla | | Change Station
CLOSE
Current Station
Personal Weather Station
Location: Benalla, VIC
Elevation: 568 ft
Nearby Weather Stations

Elev 568 ft 36.56 °S, 146.00 °E | Updated 2 seconds ago

Clear
Clear
57.4 °F
Feels Like 57.4 °F
N
4.5
Wind Variable Wind from East
Gusts 6.9 mph

Today
High -- | Low -- °F
--% Chance of Precip.
Yesterday
High -- | Low -- °F
Precip. -- in
7:28 AM 7:08 PM
Waxing Gibbous, 96% visible
Pressure 30.09 in
Visibility 6.2 miles
Clouds
Dew Point 35 °F
Humidity 43%
Rainfall 0.00 in
Snow Depth Not available.
UV Not available.
Pollen Not available.
Air Quality Not available.
Flu Activity Not available.
METAR YMAY 021000Z AUTO 35004KT 9999 // NCD 16/00 Q1019

More Conditions Fewer Conditions

Pressure 30.09 in
Visibility 6.2 miles
Clouds
Dew Point 35 °F
Humidity 43%
Rainfall 0.00 in
Snow Depth Not available.
UV Not available.
Pollen Not available.
Air Quality Not available.
Flu Activity Not available.
METAR YMAY 021000Z AUTO 35004KT 9999 // NCD 16/00 Q1019

More Conditions Fewer Conditions

10-Day Weather Forecast

Almanac

Astronomy

Apr. 02, 2015 Rise Set
Actual Time
Civil Twilight
Nautical Twilight
Astronomical Twilight
Moon
Length of Visible Light
Length of Day
Tomorrow will be .
, % of the Moon is Illuminated

Today's Extremes

Country Highs Country Lows

Community

WunderPhotos

Upload Photos

1,810,216 photos uploaded!

WunderBlogs® & News

Nearby

Air Quality

  Air Quality AQ Index Pollutant
Not available.

Snow Depth

Station Depth Elevation

Earthquake Activity

City Distance Mag. Time & Date
Minimum magnitude displayed is 2.5.

Coastal Water Temperatures

Place Temperature

Stations

Nearby Weather Stations

Station Location Temp. Windchill Dew Point Humidity Wind Precip. Elev Updated Type